AAL8059 KLGA-KIAD
Flight info
| Callsign | AAL8059 |
|---|---|
| Flight time | 0h 51m |
| Altitude | 22000 |
| Route | PARKE HYPER9 |
| Aircraft | B738/M-SADE1FGHIJ1RWXY/LB1 |
Departure
| Time | 2026-04-30 21:44 |
|---|---|
| Airport | LaGuardia Airport (KLGA) |
Arrival
| Time | 2026-04-30 22:36 |
|---|---|
| Airport | Washington Dulles International Airport (KIAD) |
| Time | Latitude | Longitude | Altitude | Speed | Heading |
|---|---|---|---|---|---|
| 2026-04-30 21:12 | 40.77522 | -73.87162 | 21 ft | 0 kts | 328° |
| 2026-04-30 21:35 | 40.77512 | -73.87153 | 20 ft | 2 kts | 328° |
| 2026-04-30 21:36 | 40.77501 | -73.87144 | 20 ft | 0 kts | 328° |
| 2026-04-30 21:37 | 40.77523 | -73.87162 | 21 ft | 0 kts | 328° |
| 2026-04-30 21:37 | 40.77503 | -73.87146 | 20 ft | 4 kts | 328° |
| 2026-04-30 21:37 | 40.77480 | -73.87127 | 20 ft | 4 kts | 332° |
| 2026-04-30 21:38 | 40.77481 | -73.87100 | 24 ft | 4 kts | 217° |
| 2026-04-30 21:38 | 40.77490 | -73.87091 | 20 ft | 0 kts | 210° |
| 2026-04-30 21:39 | 40.77474 | -73.87102 | 20 ft | 9 kts | 210° |
| 2026-04-30 21:40 | 40.77416 | -73.87153 | 21 ft | 9 kts | 237° |
| 2026-04-30 21:40 | 40.77423 | -73.87235 | 21 ft | 9 kts | 279° |
| 2026-04-30 21:40 | 40.77428 | -73.87324 | 21 ft | 10 kts | 272° |
| 2026-04-30 21:40 | 40.77436 | -73.87444 | 26 ft | 16 kts | 278° |
| 2026-04-30 21:41 | 40.77480 | -73.87575 | 29 ft | 15 kts | 303° |
| 2026-04-30 21:41 | 40.77536 | -73.87692 | 31 ft | 15 kts | 302° |
| 2026-04-30 21:41 | 40.77523 | -73.87760 | 31 ft | 9 kts | 216° |
| 2026-04-30 21:41 | 40.77468 | -73.87807 | 32 ft | 12 kts | 212° |
| 2026-04-30 21:42 | 40.77367 | -73.87891 | 29 ft | 20 kts | 212° |
| 2026-04-30 21:42 | 40.77245 | -73.87992 | 28 ft | 20 kts | 212° |
| 2026-04-30 21:42 | 40.77127 | -73.88092 | 28 ft | 20 kts | 211° |
| 2026-04-30 21:42 | 40.77015 | -73.88193 | 31 ft | 19 kts | 225° |
| 2026-04-30 21:43 | 40.76929 | -73.88320 | 32 ft | 18 kts | 243° |
| 2026-04-30 21:43 | 40.76930 | -73.88389 | 30 ft | 5 kts | 335° |
| 2026-04-30 21:43 | 40.77051 | -73.88301 | 30 ft | 43 kts | 31° |
| 2026-04-30 21:43 | 40.77537 | -73.87900 | 32 ft | 118 kts | 32° |
| 2026-04-30 21:44 | 40.78385 | -73.87163 | 196 ft | 162 kts | 31° |
| 2026-04-30 21:44 | 40.79342 | -73.86320 | 924 ft | 166 kts | 26° |
| 2026-04-30 21:44 | 40.80449 | -73.86046 | 1655 ft | 170 kts | 348° |
| 2026-04-30 21:44 | 40.81677 | -73.86525 | 2078 ft | 196 kts | 341° |
| 2026-04-30 21:45 | 40.83056 | -73.87081 | 2362 ft | 219 kts | 338° |
| 2026-04-30 21:45 | 40.84382 | -73.88193 | 2663 ft | 240 kts | 315° |
| 2026-04-30 21:45 | 40.85340 | -73.90081 | 3172 ft | 255 kts | 288° |
| 2026-04-30 21:45 | 40.85393 | -73.92404 | 4189 ft | 258 kts | 262° |
| 2026-04-30 21:46 | 40.85015 | -73.94731 | 4715 ft | 257 kts | 259° |
| 2026-04-30 21:46 | 40.84616 | -73.97046 | 4918 ft | 264 kts | 258° |
| 2026-04-30 21:46 | 40.84219 | -73.99402 | 5880 ft | 260 kts | 259° |
| 2026-04-30 21:46 | 40.83844 | -74.01715 | 6786 ft | 262 kts | 259° |
| 2026-04-30 21:47 | 40.83474 | -74.04036 | 7527 ft | 267 kts | 259° |
| 2026-04-30 21:47 | 40.83095 | -74.06513 | 8417 ft | 269 kts | 259° |
| 2026-04-30 21:47 | 40.82744 | -74.08935 | 9382 ft | 267 kts | 259° |
| 2026-04-30 21:47 | 40.82396 | -74.11319 | 10216 ft | 269 kts | 259° |
| 2026-04-30 21:48 | 40.82037 | -74.13812 | 10647 ft | 286 kts | 259° |
| 2026-04-30 21:48 | 40.81658 | -74.16486 | 10919 ft | 307 kts | 259° |
| 2026-04-30 21:48 | 40.81248 | -74.19358 | 11146 ft | 328 kts | 259° |
| 2026-04-30 21:48 | 40.80816 | -74.22369 | 11549 ft | 341 kts | 259° |
| 2026-04-30 21:49 | 40.80368 | -74.25478 | 12254 ft | 346 kts | 259° |
| 2026-04-30 21:49 | 40.79923 | -74.28572 | 13047 ft | 348 kts | 259° |
| 2026-04-30 21:49 | 40.79468 | -74.31731 | 13849 ft | 351 kts | 259° |
| 2026-04-30 21:49 | 40.79011 | -74.34908 | 14618 ft | 352 kts | 258° |
| 2026-04-30 21:50 | 40.78553 | -74.38080 | 15539 ft | 350 kts | 258° |
| 2026-04-30 21:50 | 40.78100 | -74.41221 | 16436 ft | 349 kts | 258° |
| 2026-04-30 21:50 | 40.77797 | -74.43311 | 16951 ft | 350 kts | 258° |
| 2026-04-30 21:50 | 40.77336 | -74.46490 | 17720 ft | 353 kts | 258° |
| 2026-04-30 21:51 | 40.76874 | -74.49669 | 18440 ft | 354 kts | 258° |
| 2026-04-30 21:51 | 40.76409 | -74.52867 | 19077 ft | 357 kts | 257° |
| 2026-04-30 21:51 | 40.75936 | -74.56095 | 19699 ft | 359 kts | 257° |
| 2026-04-30 21:51 | 40.75457 | -74.59349 | 20272 ft | 363 kts | 257° |
| 2026-04-30 21:52 | 40.74984 | -74.62578 | 20900 ft | 364 kts | 257° |
| 2026-04-30 21:52 | 40.74504 | -74.65852 | 21564 ft | 364 kts | 257° |
| 2026-04-30 21:52 | 40.74027 | -74.69104 | 21807 ft | 357 kts | 257° |
| 2026-04-30 21:52 | 40.73546 | -74.72373 | 21821 ft | 370 kts | 257° |
| 2026-04-30 21:53 | 40.73045 | -74.75758 | 21832 ft | 382 kts | 257° |
| 2026-04-30 21:53 | 40.72527 | -74.79252 | 21836 ft | 392 kts | 257° |
| 2026-04-30 21:53 | 40.72003 | -74.82787 | 21834 ft | 402 kts | 257° |
| 2026-04-30 21:53 | 40.71462 | -74.86439 | 21829 ft | 409 kts | 257° |
| 2026-04-30 21:54 | 40.70917 | -74.90106 | 21820 ft | 409 kts | 257° |
| 2026-04-30 21:54 | 40.70370 | -74.93780 | 21817 ft | 407 kts | 257° |
| 2026-04-30 21:54 | 40.69825 | -74.97436 | 21813 ft | 406 kts | 257° |
| 2026-04-30 21:54 | 40.69280 | -75.01080 | 21815 ft | 405 kts | 257° |
| 2026-04-30 21:55 | 40.68731 | -75.04735 | 21819 ft | 405 kts | 257° |
| 2026-04-30 21:55 | 40.68195 | -75.08372 | 21847 ft | 405 kts | 258° |
| 2026-04-30 21:55 | 40.67830 | -75.12061 | 21839 ft | 405 kts | 262° |
| 2026-04-30 21:55 | 40.67582 | -75.15727 | 21835 ft | 405 kts | 263° |
| 2026-04-30 21:56 | 40.67353 | -75.19382 | 21831 ft | 405 kts | 263° |
| 2026-04-30 21:56 | 40.67105 | -75.23085 | 21837 ft | 404 kts | 262° |
| 2026-04-30 21:56 | 40.66837 | -75.26772 | 21841 ft | 404 kts | 262° |
| 2026-04-30 21:56 | 40.66555 | -75.30459 | 21851 ft | 404 kts | 262° |
| 2026-04-30 21:57 | 40.66267 | -75.34138 | 21856 ft | 404 kts | 262° |
| 2026-04-30 21:57 | 40.65810 | -75.37777 | 21843 ft | 402 kts | 252° |
| 2026-04-30 21:57 | 40.64691 | -75.41145 | 21860 ft | 402 kts | 242° |
| 2026-04-30 21:57 | 40.63299 | -75.44343 | 21850 ft | 402 kts | 240° |
| 2026-04-30 21:58 | 40.61891 | -75.47526 | 21850 ft | 402 kts | 240° |
| 2026-04-30 21:58 | 40.60504 | -75.50668 | 21860 ft | 402 kts | 241° |
| 2026-04-30 21:58 | 40.59106 | -75.53858 | 21852 ft | 402 kts | 241° |
| 2026-04-30 21:58 | 40.57718 | -75.57045 | 21857 ft | 402 kts | 241° |
| 2026-04-30 21:59 | 40.56332 | -75.60240 | 21865 ft | 402 kts | 241° |
| 2026-04-30 21:59 | 40.54950 | -75.63432 | 21859 ft | 402 kts | 241° |
| 2026-04-30 21:59 | 40.53616 | -75.66511 | 21836 ft | 385 kts | 241° |
| 2026-04-30 22:00 | 40.51130 | -75.72239 | 21847 ft | 345 kts | 241° |
| 2026-04-30 22:00 | 40.48823 | -75.77551 | 21586 ft | 326 kts | 241° |
| 2026-04-30 22:00 | 40.47714 | -75.80104 | 21287 ft | 320 kts | 242° |
| 2026-04-30 22:01 | 40.46613 | -75.82635 | 20864 ft | 318 kts | 242° |
| 2026-04-30 22:01 | 40.45508 | -75.85171 | 20433 ft | 322 kts | 242° |
| 2026-04-30 22:01 | 40.44394 | -75.87718 | 20016 ft | 322 kts | 241° |
| 2026-04-30 22:01 | 40.43031 | -75.90063 | 19907 ft | 324 kts | 229° |
| 2026-04-30 22:02 | 40.41445 | -75.92082 | 19862 ft | 313 kts | 227° |
| 2026-04-30 22:02 | 40.39888 | -75.94017 | 19874 ft | 304 kts | 227° |
| 2026-04-30 22:02 | 40.38314 | -75.95982 | 19897 ft | 322 kts | 227° |
| 2026-04-30 22:02 | 40.36648 | -75.98076 | 19901 ft | 341 kts | 227° |
| 2026-04-30 22:03 | 40.34896 | -76.00286 | 19900 ft | 358 kts | 227° |
| 2026-04-30 22:03 | 40.33086 | -76.02571 | 19890 ft | 373 kts | 227° |
| 2026-04-30 22:03 | 40.31182 | -76.04974 | 19884 ft | 386 kts | 227° |
| 2026-04-30 22:03 | 40.29218 | -76.07454 | 19877 ft | 397 kts | 227° |
| 2026-04-30 22:04 | 40.27207 | -76.09989 | 19865 ft | 402 kts | 227° |
| 2026-04-30 22:04 | 40.25196 | -76.12522 | 19861 ft | 399 kts | 227° |
| 2026-04-30 22:04 | 40.21221 | -76.17526 | 19872 ft | 395 kts | 227° |
| 2026-04-30 22:05 | 40.19234 | -76.20030 | 19889 ft | 396 kts | 227° |
| 2026-04-30 22:05 | 40.17245 | -76.22534 | 19885 ft | 397 kts | 227° |
| 2026-04-30 22:05 | 40.15294 | -76.24988 | 19885 ft | 398 kts | 227° |
| 2026-04-30 22:05 | 40.13296 | -76.27498 | 19890 ft | 399 kts | 227° |
| 2026-04-30 22:06 | 40.11415 | -76.30150 | 19874 ft | 396 kts | 237° |
| 2026-04-30 22:06 | 40.08671 | -76.36254 | 19865 ft | 372 kts | 242° |
| 2026-04-30 22:06 | 40.07400 | -76.39082 | 19827 ft | 351 kts | 241° |
| 2026-04-30 22:07 | 40.06178 | -76.41747 | 19772 ft | 334 kts | 241° |
| 2026-04-30 22:07 | 40.05017 | -76.44258 | 19643 ft | 321 kts | 241° |
| 2026-04-30 22:07 | 40.03874 | -76.46727 | 19290 ft | 316 kts | 241° |
| 2026-04-30 22:07 | 40.02736 | -76.49187 | 18814 ft | 316 kts | 241° |
| 2026-04-30 22:08 | 40.01602 | -76.51636 | 18345 ft | 315 kts | 241° |
| 2026-04-30 22:08 | 40.00464 | -76.54092 | 17744 ft | 317 kts | 241° |
| 2026-04-30 22:08 | 39.99320 | -76.56561 | 17233 ft | 315 kts | 241° |
| 2026-04-30 22:08 | 39.98189 | -76.58997 | 16750 ft | 314 kts | 241° |
| 2026-04-30 22:09 | 39.97061 | -76.61425 | 16223 ft | 313 kts | 241° |
| 2026-04-30 22:09 | 39.95933 | -76.63849 | 15729 ft | 313 kts | 241° |
| 2026-04-30 22:09 | 39.94809 | -76.66263 | 15426 ft | 307 kts | 241° |
| 2026-04-30 22:09 | 39.93713 | -76.68613 | 15246 ft | 301 kts | 241° |
| 2026-04-30 22:10 | 39.92621 | -76.70956 | 15144 ft | 305 kts | 241° |
| 2026-04-30 22:10 | 39.91506 | -76.73348 | 15020 ft | 312 kts | 241° |
| 2026-04-30 22:10 | 39.90387 | -76.75749 | 14883 ft | 313 kts | 241° |
| 2026-04-30 22:10 | 39.89261 | -76.78158 | 14745 ft | 311 kts | 241° |
| 2026-04-30 22:11 | 39.87021 | -76.82948 | 14489 ft | 308 kts | 241° |
| 2026-04-30 22:11 | 39.85904 | -76.85335 | 14363 ft | 308 kts | 241° |
| 2026-04-30 22:11 | 39.84800 | -76.87692 | 14224 ft | 308 kts | 241° |
| 2026-04-30 22:12 | 39.83670 | -76.90102 | 14097 ft | 309 kts | 241° |
| 2026-04-30 22:12 | 39.82550 | -76.92488 | 13970 ft | 310 kts | 241° |
| 2026-04-30 22:12 | 39.81419 | -76.94901 | 13638 ft | 317 kts | 240° |
| 2026-04-30 22:12 | 39.80283 | -76.97312 | 13294 ft | 314 kts | 240° |
| 2026-04-30 22:13 | 39.79141 | -76.99737 | 12911 ft | 314 kts | 240° |
| 2026-04-30 22:13 | 39.78006 | -77.02140 | 12646 ft | 310 kts | 240° |
| 2026-04-30 22:13 | 39.76881 | -77.04519 | 12327 ft | 308 kts | 240° |
| 2026-04-30 22:13 | 39.75763 | -77.06886 | 11965 ft | 307 kts | 240° |
| 2026-04-30 22:14 | 39.74649 | -77.09252 | 11627 ft | 305 kts | 240° |
| 2026-04-30 22:14 | 39.73551 | -77.11589 | 11385 ft | 301 kts | 240° |
| 2026-04-30 22:14 | 39.72466 | -77.13892 | 11100 ft | 297 kts | 240° |
| 2026-04-30 22:14 | 39.71387 | -77.16174 | 10786 ft | 293 kts | 240° |
| 2026-04-30 22:15 | 39.70340 | -77.18378 | 10510 ft | 289 kts | 240° |
| 2026-04-30 22:15 | 39.69289 | -77.20585 | 10182 ft | 286 kts | 240° |
| 2026-04-30 22:15 | 39.67994 | -77.22516 | 9897 ft | 287 kts | 217° |
| 2026-04-30 22:15 | 39.66205 | -77.23630 | 9834 ft | 280 kts | 205° |
| 2026-04-30 22:16 | 39.64420 | -77.24526 | 9653 ft | 273 kts | 206° |
| 2026-04-30 22:16 | 39.62704 | -77.25400 | 9466 ft | 266 kts | 206° |
| 2026-04-30 22:17 | 39.57553 | -77.27995 | 8840 ft | 259 kts | 206° |
| 2026-04-30 22:17 | 39.55849 | -77.28851 | 8570 ft | 266 kts | 206° |
| 2026-04-30 22:17 | 39.52371 | -77.30603 | 8217 ft | 269 kts | 206° |
| 2026-04-30 22:18 | 39.50637 | -77.31487 | 8056 ft | 268 kts | 207° |
| 2026-04-30 22:18 | 39.47196 | -77.33248 | 7677 ft | 265 kts | 207° |
| 2026-04-30 22:19 | 39.43796 | -77.34958 | 7289 ft | 261 kts | 206° |
| 2026-04-30 22:19 | 39.42112 | -77.35806 | 7155 ft | 258 kts | 206° |
| 2026-04-30 22:19 | 39.38458 | -77.36337 | 6720 ft | 276 kts | 181° |
| 2026-04-30 22:20 | 39.36541 | -77.36248 | 6430 ft | 276 kts | 183° |
| 2026-04-30 22:20 | 39.32699 | -77.36155 | 5830 ft | 274 kts | 184° |
| 2026-04-30 22:20 | 39.30801 | -77.36111 | 5575 ft | 272 kts | 183° |
| 2026-04-30 22:21 | 39.28914 | -77.36076 | 5312 ft | 270 kts | 183° |
| 2026-04-30 22:21 | 39.27039 | -77.36034 | 5043 ft | 269 kts | 183° |
| 2026-04-30 22:21 | 39.25170 | -77.35989 | 4800 ft | 267 kts | 183° |
| 2026-04-30 22:21 | 39.23326 | -77.35942 | 4639 ft | 263 kts | 183° |
| 2026-04-30 22:22 | 39.21480 | -77.35894 | 4471 ft | 265 kts | 183° |
| 2026-04-30 22:22 | 39.19650 | -77.35847 | 4338 ft | 267 kts | 183° |
| 2026-04-30 22:22 | 39.17773 | -77.35798 | 4153 ft | 268 kts | 182° |
| 2026-04-30 22:22 | 39.15904 | -77.35756 | 4018 ft | 267 kts | 184° |
| 2026-04-30 22:23 | 39.14062 | -77.35753 | 4031 ft | 263 kts | 184° |
| 2026-04-30 22:23 | 39.12234 | -77.35750 | 4016 ft | 263 kts | 184° |
| 2026-04-30 22:23 | 39.10401 | -77.35751 | 4052 ft | 264 kts | 184° |
| 2026-04-30 22:23 | 39.08558 | -77.35754 | 4078 ft | 267 kts | 184° |
| 2026-04-30 22:24 | 39.06694 | -77.35749 | 3999 ft | 266 kts | 184° |
| 2026-04-30 22:24 | 39.04853 | -77.35741 | 4001 ft | 264 kts | 184° |
| 2026-04-30 22:24 | 39.03045 | -77.35734 | 4011 ft | 263 kts | 184° |
| 2026-04-30 22:24 | 39.01213 | -77.35728 | 4000 ft | 262 kts | 184° |
| 2026-04-30 22:25 | 38.99386 | -77.35723 | 4006 ft | 263 kts | 183° |
| 2026-04-30 22:25 | 38.97550 | -77.35718 | 4003 ft | 264 kts | 184° |
| 2026-04-30 22:25 | 38.95708 | -77.35713 | 4010 ft | 265 kts | 184° |
| 2026-04-30 22:25 | 38.93871 | -77.35709 | 4007 ft | 267 kts | 184° |
| 2026-04-30 22:26 | 38.90220 | -77.35699 | 3629 ft | 262 kts | 184° |
| 2026-04-30 22:26 | 38.88419 | -77.35729 | 3502 ft | 255 kts | 185° |
| 2026-04-30 22:26 | 38.86675 | -77.35763 | 3385 ft | 247 kts | 185° |
| 2026-04-30 22:27 | 38.84987 | -77.35789 | 3292 ft | 239 kts | 185° |
| 2026-04-30 22:27 | 38.83345 | -77.35823 | 3188 ft | 233 kts | 186° |
| 2026-04-30 22:27 | 38.80129 | -77.35901 | 3011 ft | 230 kts | 186° |
| 2026-04-30 22:28 | 38.76949 | -77.35974 | 2980 ft | 228 kts | 186° |
| 2026-04-30 22:28 | 38.75358 | -77.36020 | 2993 ft | 230 kts | 186° |
| 2026-04-30 22:29 | 38.72250 | -77.39017 | 3010 ft | 176 kts | 271° |
| 2026-04-30 22:29 | 38.72185 | -77.40573 | 3004 ft | 174 kts | 272° |
| 2026-04-30 22:30 | 38.75354 | -77.44433 | 3055 ft | 171 kts | 330° |
| 2026-04-30 22:31 | 38.78549 | -77.46124 | 3007 ft | 162 kts | 359° |
| 2026-04-30 22:32 | 38.81849 | -77.46139 | 2739 ft | 161 kts | 354° |
| 2026-04-30 22:32 | 38.83988 | -77.46120 | 2314 ft | 153 kts | 355° |
| 2026-04-30 22:33 | 38.87154 | -77.46077 | 1720 ft | 151 kts | 354° |
| 2026-04-30 22:33 | 38.89222 | -77.46046 | 1283 ft | 144 kts | 355° |
| 2026-04-30 22:34 | 38.92235 | -77.46002 | 665 ft | 148 kts | 355° |
| 2026-04-30 22:35 | 38.94288 | -77.45969 | 326 ft | 139 kts | 357° |
| 2026-04-30 22:36 | 38.96132 | -77.45746 | 317 ft | 22 kts | 76° |
| 2026-04-30 22:36 | 38.96097 | -77.45703 | 317 ft | 1 kts | 179° |
| 2026-04-30 22:37 | 38.95764 | -77.45706 | 322 ft | 16 kts | 181° |
| 2026-04-30 22:37 | 38.95725 | -77.45638 | 320 ft | 13 kts | 95° |
| 2026-04-30 22:37 | 38.95513 | -77.45595 | 319 ft | 20 kts | 180° |
| 2026-04-30 22:38 | 38.95282 | -77.45598 | 316 ft | 19 kts | 180° |
| 2026-04-30 22:38 | 38.95039 | -77.45568 | 313 ft | 9 kts | 98° |
| 2026-04-30 22:39 | 38.95035 | -77.45475 | 312 ft | 13 kts | 91° |
| 2026-04-30 22:39 | 38.94997 | -77.45248 | 309 ft | 10 kts | 111° |
| 2026-04-30 22:40 | 38.94934 | -77.45227 | 308 ft | 0 kts | 199° |